sensor_id;sensor_type;location;lat;lon;timestamp;P1;durP1;ratioP1;P2;durP2;ratioP2
24157;SDS011;12316;50.904;4.200;2022-11-06T00:01:21;10.50;;;3.80;;
24157;SDS011;12316;50.904;4.200;2022-11-06T00:03:47;13.98;;;4.38;;
24157;SDS011;12316;50.904;4.200;2022-11-06T00:06:16;10.27;;;3.90;;
24157;SDS011;12316;50.904;4.200;2022-11-06T00:09:02;13.77;;;3.65;;
24157;SDS011;12316;50.904;4.200;2022-11-06T00:11:31;9.88;;;4.00;;
24157;SDS011;12316;50.904;4.200;2022-11-06T00:13:56;17.75;;;4.00;;
24157;SDS011;12316;50.904;4.200;2022-11-06T00:16:23;14.23;;;3.75;;
24157;SDS011;12316;50.904;4.200;2022-11-06T00:18:49;8.43;;;3.10;;
24157;SDS011;12316;50.904;4.200;2022-11-06T00:21:16;13.43;;;3.53;;
24157;SDS011;12316;50.904;4.200;2022-11-06T00:23:44;14.90;;;3.63;;
24157;SDS011;12316;50.904;4.200;2022-11-06T00:26:12;10.40;;;3.50;;
24157;SDS011;12316;50.904;4.200;2022-11-06T00:28:49;10.30;;;3.58;;
24157;SDS011;12316;50.904;4.200;2022-11-06T00:31:16;8.63;;;3.17;;
24157;SDS011;12316;50.904;4.200;2022-11-06T00:33:43;13.20;;;3.60;;
24157;SDS011;12316;50.904;4.200;2022-11-06T00:36:10;10.00;;;3.20;;
24157;SDS011;12316;50.904;4.200;2022-11-06T00:38:40;10.98;;;3.15;;
24157;SDS011;12316;50.904;4.200;2022-11-06T00:41:07;9.15;;;3.20;;
24157;SDS011;12316;50.904;4.200;2022-11-06T00:43:34;11.38;;;3.78;;
24157;SDS011;12316;50.904;4.200;2022-11-06T00:46:01;14.00;;;3.42;;
24157;SDS011;12316;50.904;4.200;2022-11-06T00:48:31;9.98;;;3.42;;
24157;SDS011;12316;50.904;4.200;2022-11-06T00:51:03;10.77;;;3.67;;
24157;SDS011;12316;50.904;4.200;2022-11-06T00:53:34;11.80;;;3.78;;
24157;SDS011;12316;50.904;4.200;2022-11-06T00:56:04;11.40;;;3.80;;
24157;SDS011;12316;50.904;4.200;2022-11-06T00:58:35;13.27;;;3.53;;
24157;SDS011;12316;50.904;4.200;2022-11-06T01:01:20;9.40;;;3.40;;
24157;SDS011;12316;50.904;4.200;2022-11-06T01:03:51;11.48;;;3.58;;
24157;SDS011;12316;50.904;4.200;2022-11-06T01:06:20;6.63;;;3.25;;
24157;SDS011;12316;50.904;4.200;2022-11-06T01:08:47;12.30;;;3.45;;
24157;SDS011;12316;50.904;4.200;2022-11-06T01:11:22;9.10;;;3.03;;
24157;SDS011;12316;50.904;4.200;2022-11-06T01:13:51;9.00;;;3.30;;
24157;SDS011;12316;50.904;4.200;2022-11-06T01:16:19;11.30;;;3.10;;
24157;SDS011;12316;50.904;4.200;2022-11-06T01:18:45;12.75;;;3.38;;
24157;SDS011;12316;50.904;4.200;2022-11-06T01:21:54;9.90;;;3.25;;
24157;SDS011;12316;50.904;4.200;2022-11-06T01:24:11;11.52;;;3.53;;
24157;SDS011;12316;50.904;4.200;2022-11-06T01:26:39;12.88;;;3.28;;
24157;SDS011;12316;50.904;4.200;2022-11-06T01:29:06;12.32;;;3.47;;
24157;SDS011;12316;50.904;4.200;2022-11-06T01:31:34;9.82;;;2.67;;
24157;SDS011;12316;50.904;4.200;2022-11-06T01:34:00;10.90;;;2.97;;
24157;SDS011;12316;50.904;4.200;2022-11-06T01:36:27;14.43;;;3.17;;
24157;SDS011;12316;50.904;4.200;2022-11-06T01:38:57;11.35;;;3.00;;
24157;SDS011;12316;50.904;4.200;2022-11-06T01:41:32;8.68;;;3.05;;
24157;SDS011;12316;50.904;4.200;2022-11-06T01:45:03;6.55;;;2.97;;
24157;SDS011;12316;50.904;4.200;2022-11-06T01:46:55;8.85;;;2.75;;
24157;SDS011;12316;50.904;4.200;2022-11-06T01:49:21;9.07;;;3.42;;
24157;SDS011;12316;50.904;4.200;2022-11-06T01:51:48;11.65;;;3.35;;
24157;SDS011;12316;50.904;4.200;2022-11-06T01:54:19;10.15;;;3.40;;
24157;SDS011;12316;50.904;4.200;2022-11-06T01:56:47;15.60;;;3.30;;
24157;SDS011;12316;50.904;4.200;2022-11-06T01:59:15;14.13;;;3.35;;
24157;SDS011;12316;50.904;4.200;2022-11-06T02:01:43;8.27;;;2.70;;
24157;SDS011;12316;50.904;4.200;2022-11-06T02:04:17;10.75;;;3.42;;
24157;SDS011;12316;50.904;4.200;2022-11-06T02:06:46;8.68;;;2.90;;
24157;SDS011;12316;50.904;4.200;2022-11-06T02:09:12;9.63;;;3.05;;
24157;SDS011;12316;50.904;4.200;2022-11-06T02:11:42;9.85;;;3.00;;
24157;SDS011;12316;50.904;4.200;2022-11-06T02:17:08;12.00;;;3.30;;
24157;SDS011;12316;50.904;4.200;2022-11-06T02:20:00;8.43;;;2.97;;
24157;SDS011;12316;50.904;4.200;2022-11-06T02:28:37;11.52;;;3.03;;
24157;SDS011;12316;50.904;4.200;2022-11-06T02:31:12;11.80;;;3.10;;
24157;SDS011;12316;50.904;4.200;2022-11-06T02:33:46;9.25;;;2.90;;
24157;SDS011;12316;50.904;4.200;2022-11-06T02:36:17;11.77;;;3.00;;
24157;SDS011;12316;50.904;4.200;2022-11-06T02:38:48;9.75;;;3.17;;
24157;SDS011;12316;50.904;4.200;2022-11-06T02:41:19;8.00;;;2.70;;
24157;SDS011;12316;50.904;4.200;2022-11-06T02:43:50;8.90;;;2.70;;
24157;SDS011;12316;50.904;4.200;2022-11-06T02:46:21;7.60;;;2.67;;
24157;SDS011;12316;50.904;4.200;2022-11-06T02:48:52;9.23;;;2.80;;
24157;SDS011;12316;50.904;4.200;2022-11-06T02:51:24;8.70;;;2.28;;
24157;SDS011;12316;50.904;4.200;2022-11-06T02:53:52;7.80;;;2.70;;
24157;SDS011;12316;50.904;4.200;2022-11-06T02:56:23;8.00;;;2.60;;
24157;SDS011;12316;50.904;4.200;2022-11-06T02:58:56;10.10;;;3.22;;
24157;SDS011;12316;50.904;4.200;2022-11-06T03:01:30;8.40;;;2.58;;
24157;SDS011;12316;50.904;4.200;2022-11-06T03:04:01;13.32;;;2.95;;
24157;SDS011;12316;50.904;4.200;2022-11-06T03:06:33;10.90;;;2.97;;
24157;SDS011;12316;50.904;4.200;2022-11-06T03:09:08;12.63;;;2.60;;
24157;SDS011;12316;50.904;4.200;2022-11-06T03:11:38;10.65;;;2.85;;
24157;SDS011;12316;50.904;4.200;2022-11-06T03:17:14;8.05;;;2.90;;
24157;SDS011;12316;50.904;4.200;2022-11-06T03:19:49;6.88;;;3.10;;
24157;SDS011;12316;50.904;4.200;2022-11-06T03:22:30;7.75;;;3.40;;
24157;SDS011;12316;50.904;4.200;2022-11-06T03:30:50;10.90;;;2.80;;
24157;SDS011;12316;50.904;4.200;2022-11-06T03:33:29;11.82;;;3.50;;
24157;SDS011;12316;50.904;4.200;2022-11-06T03:36:16;9.73;;;3.28;;
24157;SDS011;12316;50.904;4.200;2022-11-06T03:38:47;11.65;;;3.05;;
24157;SDS011;12316;50.904;4.200;2022-11-06T03:41:21;10.13;;;3.03;;
24157;SDS011;12316;50.904;4.200;2022-11-06T03:43:52;7.30;;;2.80;;
24157;SDS011;12316;50.904;4.200;2022-11-06T03:46:21;9.55;;;3.08;;
24157;SDS011;12316;50.904;4.200;2022-11-06T03:48:51;8.27;;;3.33;;
24157;SDS011;12316;50.904;4.200;2022-11-06T03:53:52;7.15;;;3.05;;
24157;SDS011;12316;50.904;4.200;2022-11-06T03:56:34;11.35;;;3.03;;
24157;SDS011;12316;50.904;4.200;2022-11-06T03:59:07;8.23;;;2.33;;
24157;SDS011;12316;50.904;4.200;2022-11-06T04:01:35;9.70;;;3.00;;
24157;SDS011;12316;50.904;4.200;2022-11-06T04:04:04;6.40;;;2.63;;
24157;SDS011;12316;50.904;4.200;2022-11-06T04:06:36;7.80;;;2.78;;
24157;SDS011;12316;50.904;4.200;2022-11-06T04:09:06;7.63;;;2.55;;
24157;SDS011;12316;50.904;4.200;2022-11-06T04:11:54;9.52;;;2.70;;
24157;SDS011;12316;50.904;4.200;2022-11-06T04:14:42;9.63;;;2.90;;
24157;SDS011;12316;50.904;4.200;2022-11-06T04:17:13;8.40;;;3.00;;
24157;SDS011;12316;50.904;4.200;2022-11-06T04:19:50;7.70;;;2.70;;
24157;SDS011;12316;50.904;4.200;2022-11-06T04:25:03;10.82;;;2.72;;
24157;SDS011;12316;50.904;4.200;2022-11-06T04:28:18;5.00;;;2.53;;
24157;SDS011;12316;50.904;4.200;2022-11-06T04:34:01;10.93;;;2.80;;
24157;SDS011;12316;50.904;4.200;2022-11-06T04:36:56;7.07;;;2.47;;
24157;SDS011;12316;50.904;4.200;2022-11-06T04:39:39;8.95;;;2.90;;
24157;SDS011;12316;50.904;4.200;2022-11-06T04:42:17;8.60;;;2.45;;
24157;SDS011;12316;50.904;4.200;2022-11-06T04:44:55;7.47;;;2.70;;
24157;SDS011;12316;50.904;4.200;2022-11-06T04:47:25;11.93;;;2.80;;
24157;SDS011;12316;50.904;4.200;2022-11-06T04:49:52;9.15;;;2.72;;
24157;SDS011;12316;50.904;4.200;2022-11-06T04:52:25;7.32;;;2.45;;
24157;SDS011;12316;50.904;4.200;2022-11-06T04:54:52;8.80;;;2.72;;
24157;SDS011;12316;50.904;4.200;2022-11-06T04:57:23;7.95;;;2.60;;
24157;SDS011;12316;50.904;4.200;2022-11-06T04:59:50;9.15;;;3.03;;
24157;SDS011;12316;50.904;4.200;2022-11-06T05:02:16;9.65;;;3.08;;
24157;SDS011;12316;50.904;4.200;2022-11-06T05:04:41;10.93;;;2.85;;
24157;SDS011;12316;50.904;4.200;2022-11-06T05:07:08;9.05;;;2.55;;
24157;SDS011;12316;50.904;4.200;2022-11-06T05:09:36;8.80;;;2.45;;
24157;SDS011;12316;50.904;4.200;2022-11-06T05:12:02;8.13;;;2.80;;
24157;SDS011;12316;50.904;4.200;2022-11-06T05:14:28;9.82;;;2.63;;
24157;SDS011;12316;50.904;4.200;2022-11-06T05:16:53;9.65;;;2.75;;
24157;SDS011;12316;50.904;4.200;2022-11-06T05:19:19;9.27;;;2.50;;
24157;SDS011;12316;50.904;4.200;2022-11-06T05:21:44;10.93;;;2.70;;
24157;SDS011;12316;50.904;4.200;2022-11-06T05:24:28;7.22;;;2.67;;
24157;SDS011;12316;50.904;4.200;2022-11-06T05:26:54;5.70;;;3.03;;
24157;SDS011;12316;50.904;4.200;2022-11-06T05:29:19;8.50;;;2.72;;
24157;SDS011;12316;50.904;4.200;2022-11-06T05:31:45;5.20;;;2.60;;
24157;SDS011;12316;50.904;4.200;2022-11-06T05:34:11;8.82;;;2.42;;
24157;SDS011;12316;50.904;4.200;2022-11-06T05:36:37;12.20;;;2.67;;
24157;SDS011;12316;50.904;4.200;2022-11-06T05:39:03;8.60;;;2.78;;
24157;SDS011;12316;50.904;4.200;2022-11-06T05:41:28;8.93;;;2.50;;
24157;SDS011;12316;50.904;4.200;2022-11-06T05:43:54;8.02;;;2.60;;
24157;SDS011;12316;50.904;4.200;2022-11-06T05:46:19;6.28;;;2.67;;
24157;SDS011;12316;50.904;4.200;2022-11-06T05:48:45;7.65;;;2.47;;
24157;SDS011;12316;50.904;4.200;2022-11-06T05:51:11;9.13;;;2.53;;
24157;SDS011;12316;50.904;4.200;2022-11-06T05:53:36;8.02;;;2.30;;
24157;SDS011;12316;50.904;4.200;2022-11-06T05:56:02;8.95;;;2.55;;
24157;SDS011;12316;50.904;4.200;2022-11-06T05:58:29;9.65;;;2.58;;
24157;SDS011;12316;50.904;4.200;2022-11-06T06:00:55;8.57;;;2.25;;
24157;SDS011;12316;50.904;4.200;2022-11-06T06:03:22;5.15;;;2.20;;
24157;SDS011;12316;50.904;4.200;2022-11-06T06:05:49;10.20;;;2.50;;
24157;SDS011;12316;50.904;4.200;2022-11-06T06:08:15;6.95;;;2.50;;
24157;SDS011;12316;50.904;4.200;2022-11-06T06:10:45;6.95;;;2.08;;
24157;SDS011;12316;50.904;4.200;2022-11-06T06:13:12;8.93;;;2.80;;
24157;SDS011;12316;50.904;4.200;2022-11-06T06:15:39;11.30;;;2.38;;
24157;SDS011;12316;50.904;4.200;2022-11-06T06:18:06;7.53;;;2.20;;
24157;SDS011;12316;50.904;4.200;2022-11-06T06:20:33;7.00;;;2.35;;
24157;SDS011;12316;50.904;4.200;2022-11-06T06:22:59;5.93;;;2.20;;
24157;SDS011;12316;50.904;4.200;2022-11-06T06:25:25;7.88;;;2.47;;
24157;SDS011;12316;50.904;4.200;2022-11-06T06:27:51;9.60;;;2.60;;
24157;SDS011;12316;50.904;4.200;2022-11-06T06:30:17;6.72;;;2.20;;
24157;SDS011;12316;50.904;4.200;2022-11-06T06:32:43;6.45;;;2.05;;
24157;SDS011;12316;50.904;4.200;2022-11-06T06:35:09;9.00;;;2.35;;
24157;SDS011;12316;50.904;4.200;2022-11-06T06:37:35;7.00;;;2.58;;
24157;SDS011;12316;50.904;4.200;2022-11-06T06:40:01;7.40;;;2.03;;
24157;SDS011;12316;50.904;4.200;2022-11-06T06:42:28;8.30;;;2.00;;
24157;SDS011;12316;50.904;4.200;2022-11-06T06:44:53;7.40;;;2.15;;
24157;SDS011;12316;50.904;4.200;2022-11-06T06:47:19;6.72;;;2.17;;
24157;SDS011;12316;50.904;4.200;2022-11-06T06:49:44;9.93;;;2.20;;
24157;SDS011;12316;50.904;4.200;2022-11-06T06:52:11;9.20;;;2.35;;
24157;SDS011;12316;50.904;4.200;2022-11-06T06:54:37;9.43;;;2.30;;
24157;SDS011;12316;50.904;4.200;2022-11-06T06:57:04;6.93;;;2.00;;
24157;SDS011;12316;50.904;4.200;2022-11-06T06:59:31;8.30;;;2.28;;
24157;SDS011;12316;50.904;4.200;2022-11-06T07:01:56;6.22;;;2.10;;
24157;SDS011;12316;50.904;4.200;2022-11-06T07:04:22;7.82;;;2.28;;
24157;SDS011;12316;50.904;4.200;2022-11-06T07:06:48;4.82;;;2.00;;
24157;SDS011;12316;50.904;4.200;2022-11-06T07:09:13;5.18;;;1.83;;
24157;SDS011;12316;50.904;4.200;2022-11-06T07:11:39;7.32;;;2.47;;
24157;SDS011;12316;50.904;4.200;2022-11-06T07:14:05;11.25;;;2.28;;
24157;SDS011;12316;50.904;4.200;2022-11-06T07:16:30;6.60;;;1.90;;
24157;SDS011;12316;50.904;4.200;2022-11-06T07:18:56;6.90;;;2.05;;
24157;SDS011;12316;50.904;4.200;2022-11-06T07:21:22;5.93;;;2.08;;
24157;SDS011;12316;50.904;4.200;2022-11-06T07:23:48;9.70;;;2.28;;
24157;SDS011;12316;50.904;4.200;2022-11-06T07:26:14;5.97;;;1.90;;
24157;SDS011;12316;50.904;4.200;2022-11-06T07:28:40;5.57;;;2.00;;
24157;SDS011;12316;50.904;4.200;2022-11-06T07:31:06;10.20;;;2.17;;
24157;SDS011;12316;50.904;4.200;2022-11-06T07:33:33;4.30;;;1.73;;
24157;SDS011;12316;50.904;4.200;2022-11-06T07:36:05;6.97;;;1.92;;
24157;SDS011;12316;50.904;4.200;2022-11-06T07:38:37;7.15;;;2.10;;
24157;SDS011;12316;50.904;4.200;2022-11-06T07:41:04;8.68;;;2.15;;
24157;SDS011;12316;50.904;4.200;2022-11-06T07:43:31;5.20;;;1.67;;
24157;SDS011;12316;50.904;4.200;2022-11-06T07:46:01;7.57;;;1.90;;
24157;SDS011;12316;50.904;4.200;2022-11-06T07:48:29;10.43;;;2.10;;
24157;SDS011;12316;50.904;4.200;2022-11-06T07:50:55;4.32;;;1.73;;
24157;SDS011;12316;50.904;4.200;2022-11-06T07:53:21;6.75;;;1.90;;
24157;SDS011;12316;50.904;4.200;2022-11-06T07:55:48;7.28;;;1.98;;
24157;SDS011;12316;50.904;4.200;2022-11-06T07:58:15;9.57;;;1.88;;
24157;SDS011;12316;50.904;4.200;2022-11-06T08:00:47;7.28;;;2.00;;
24157;SDS011;12316;50.904;4.200;2022-11-06T08:03:14;3.85;;;1.83;;
24157;SDS011;12316;50.904;4.200;2022-11-06T08:05:40;6.93;;;1.73;;
24157;SDS011;12316;50.904;4.200;2022-11-06T08:08:06;5.75;;;1.70;;
24157;SDS011;12316;50.904;4.200;2022-11-06T08:10:31;5.07;;;1.65;;
24157;SDS011;12316;50.904;4.200;2022-11-06T08:13:00;5.47;;;1.75;;
24157;SDS011;12316;50.904;4.200;2022-11-06T08:15:26;5.68;;;1.60;;
24157;SDS011;12316;50.904;4.200;2022-11-06T08:17:51;6.65;;;1.90;;
24157;SDS011;12316;50.904;4.200;2022-11-06T08:20:17;6.93;;;1.65;;
24157;SDS011;12316;50.904;4.200;2022-11-06T08:22:43;6.57;;;1.83;;
24157;SDS011;12316;50.904;4.200;2022-11-06T08:25:09;6.30;;;1.70;;
24157;SDS011;12316;50.904;4.200;2022-11-06T08:27:34;5.15;;;1.80;;
24157;SDS011;12316;50.904;4.200;2022-11-06T08:30:00;6.18;;;1.70;;
24157;SDS011;12316;50.904;4.200;2022-11-06T08:32:26;8.77;;;1.70;;
24157;SDS011;12316;50.904;4.200;2022-11-06T08:34:52;10.50;;;1.92;;
24157;SDS011;12316;50.904;4.200;2022-11-06T08:37:18;6.03;;;1.50;;
24157;SDS011;12316;50.904;4.200;2022-11-06T08:39:44;7.97;;;2.00;;
24157;SDS011;12316;50.904;4.200;2022-11-06T08:42:10;6.95;;;1.90;;
24157;SDS011;12316;50.904;4.200;2022-11-06T08:44:36;4.75;;;1.75;;
24157;SDS011;12316;50.904;4.200;2022-11-06T08:47:01;6.82;;;1.73;;
24157;SDS011;12316;50.904;4.200;2022-11-06T08:49:27;8.70;;;1.85;;
24157;SDS011;12316;50.904;4.200;2022-11-06T08:51:52;5.18;;;1.63;;
24157;SDS011;12316;50.904;4.200;2022-11-06T08:54:18;9.35;;;1.90;;
24157;SDS011;12316;50.904;4.200;2022-11-06T08:56:44;6.55;;;1.60;;
24157;SDS011;12316;50.904;4.200;2022-11-06T08:59:10;5.18;;;1.58;;
24157;SDS011;12316;50.904;4.200;2022-11-06T09:01:36;8.77;;;1.70;;
24157;SDS011;12316;50.904;4.200;2022-11-06T09:04:01;7.00;;;1.40;;
24157;SDS011;12316;50.904;4.200;2022-11-06T09:06:27;8.13;;;1.75;;
24157;SDS011;12316;50.904;4.200;2022-11-06T09:08:53;10.02;;;1.50;;
24157;SDS011;12316;50.904;4.200;2022-11-06T09:11:19;6.55;;;1.55;;
24157;SDS011;12316;50.904;4.200;2022-11-06T09:13:45;7.82;;;1.77;;
24157;SDS011;12316;50.904;4.200;2022-11-06T09:16:11;6.82;;;1.88;;
24157;SDS011;12316;50.904;4.200;2022-11-06T09:18:36;9.35;;;2.00;;
24157;SDS011;12316;50.904;4.200;2022-11-06T09:21:02;7.30;;;1.70;;
24157;SDS011;12316;50.904;4.200;2022-11-06T09:23:28;5.88;;;1.85;;
24157;SDS011;12316;50.904;4.200;2022-11-06T09:25:55;6.93;;;1.90;;
24157;SDS011;12316;50.904;4.200;2022-11-06T09:28:21;5.32;;;1.98;;
24157;SDS011;12316;50.904;4.200;2022-11-06T09:30:47;8.48;;;1.98;;
24157;SDS011;12316;50.904;4.200;2022-11-06T09:33:13;7.05;;;2.25;;
24157;SDS011;12316;50.904;4.200;2022-11-06T09:35:38;5.57;;;1.90;;
24157;SDS011;12316;50.904;4.200;2022-11-06T09:38:05;4.88;;;1.80;;
24157;SDS011;12316;50.904;4.200;2022-11-06T09:40:40;6.18;;;2.20;;
24157;SDS011;12316;50.904;4.200;2022-11-06T09:46:05;7.70;;;2.13;;
24157;SDS011;12316;50.904;4.200;2022-11-06T09:48:39;4.65;;;2.00;;
24157;SDS011;12316;50.904;4.200;2022-11-06T09:51:12;9.02;;;2.28;;
24157;SDS011;12316;50.904;4.200;2022-11-06T09:53:55;7.72;;;2.13;;
24157;SDS011;12316;50.904;4.200;2022-11-06T09:56:33;8.13;;;2.10;;
24157;SDS011;12316;50.904;4.200;2022-11-06T09:59:05;8.32;;;2.00;;
24157;SDS011;12316;50.904;4.200;2022-11-06T10:01:46;5.68;;;2.00;;
24157;SDS011;12316;50.904;4.200;2022-11-06T10:04:23;6.57;;;2.22;;
24157;SDS011;12316;50.904;4.200;2022-11-06T10:07:28;5.28;;;1.90;;
24157;SDS011;12316;50.904;4.200;2022-11-06T10:09:56;6.50;;;1.90;;
24157;SDS011;12316;50.904;4.200;2022-11-06T10:12:31;7.88;;;2.20;;
24157;SDS011;12316;50.904;4.200;2022-11-06T10:15:25;7.78;;;2.33;;
24157;SDS011;12316;50.904;4.200;2022-11-06T10:17:59;8.65;;;2.20;;
24157;SDS011;12316;50.904;4.200;2022-11-06T10:20:52;6.72;;;1.90;;
24157;SDS011;12316;50.904;4.200;2022-11-06T10:28:54;6.25;;;1.90;;
24157;SDS011;12316;50.904;4.200;2022-11-06T10:34:16;5.45;;;1.70;;
24157;SDS011;12316;50.904;4.200;2022-11-06T10:37:04;4.80;;;1.70;;
24157;SDS011;12316;50.904;4.200;2022-11-06T10:39:40;7.85;;;2.10;;
24157;SDS011;12316;50.904;4.200;2022-11-06T10:42:17;6.05;;;2.00;;
24157;SDS011;12316;50.904;4.200;2022-11-06T10:47:28;7.15;;;2.00;;
24157;SDS011;12316;50.904;4.200;2022-11-06T10:49:58;6.75;;;1.75;;
24157;SDS011;12316;50.904;4.200;2022-11-06T10:52:29;5.68;;;1.80;;
24157;SDS011;12316;50.904;4.200;2022-11-06T10:58:06;8.32;;;2.10;;
24157;SDS011;12316;50.904;4.200;2022-11-06T11:00:39;4.85;;;1.48;;
24157;SDS011;12316;50.904;4.200;2022-11-06T11:03:05;5.28;;;1.80;;
24157;SDS011;12316;50.904;4.200;2022-11-06T11:05:43;6.85;;;1.67;;
24157;SDS011;12316;50.904;4.200;2022-11-06T11:11:18;5.95;;;2.00;;
24157;SDS011;12316;50.904;4.200;2022-11-06T11:13:45;7.63;;;1.58;;
24157;SDS011;12316;50.904;4.200;2022-11-06T11:16:23;6.90;;;2.00;;
24157;SDS011;12316;50.904;4.200;2022-11-06T11:18:51;4.65;;;1.80;;
24157;SDS011;12316;50.904;4.200;2022-11-06T11:23:44;6.50;;;1.60;;
24157;SDS011;12316;50.904;4.200;2022-11-06T11:26:32;6.40;;;1.80;;
24157;SDS011;12316;50.904;4.200;2022-11-06T11:28:59;6.38;;;1.90;;
24157;SDS011;12316;50.904;4.200;2022-11-06T11:31:29;8.82;;;2.08;;
24157;SDS011;12316;50.904;4.200;2022-11-06T11:34:00;4.22;;;1.63;;
24157;SDS011;12316;50.904;4.200;2022-11-06T11:39:21;5.10;;;1.95;;
24157;SDS011;12316;50.904;4.200;2022-11-06T11:42:20;4.97;;;1.90;;
24157;SDS011;12316;50.904;4.200;2022-11-06T11:45:22;5.55;;;2.15;;
24157;SDS011;12316;50.904;4.200;2022-11-06T11:47:45;6.65;;;2.30;;
24157;SDS011;12316;50.904;4.200;2022-11-06T11:52:58;7.43;;;1.80;;
24157;SDS011;12316;50.904;4.200;2022-11-06T11:55:30;4.47;;;1.70;;
24157;SDS011;12316;50.904;4.200;2022-11-06T12:00:37;8.15;;;1.90;;
24157;SDS011;12316;50.904;4.200;2022-11-06T12:03:26;7.88;;;2.25;;
24157;SDS011;12316;50.904;4.200;2022-11-06T12:06:04;6.40;;;1.98;;
24157;SDS011;12316;50.904;4.200;2022-11-06T12:08:32;7.70;;;1.90;;
24157;SDS011;12316;50.904;4.200;2022-11-06T12:11:02;7.22;;;2.13;;
24157;SDS011;12316;50.904;4.200;2022-11-06T12:13:30;6.22;;;1.92;;
24157;SDS011;12316;50.904;4.200;2022-11-06T12:16:02;8.20;;;2.10;;
24157;SDS011;12316;50.904;4.200;2022-11-06T12:18:47;5.97;;;2.00;;
24157;SDS011;12316;50.904;4.200;2022-11-06T12:31:44;8.00;;;2.13;;
24157;SDS011;12316;50.904;4.200;2022-11-06T12:34:32;6.10;;;2.10;;
24157;SDS011;12316;50.904;4.200;2022-11-06T12:37:09;5.95;;;1.98;;
24157;SDS011;12316;50.904;4.200;2022-11-06T12:48:32;8.07;;;2.30;;
24157;SDS011;12316;50.904;4.200;2022-11-06T12:56:51;9.65;;;2.90;;
24157;SDS011;12316;50.904;4.200;2022-11-06T13:10:39;9.98;;;2.40;;
24157;SDS011;12316;50.904;4.200;2022-11-06T13:13:29;6.30;;;2.45;;
24157;SDS011;12316;50.904;4.200;2022-11-06T13:19:23;7.43;;;2.30;;
24157;SDS011;12316;50.904;4.200;2022-11-06T13:27:12;11.60;;;2.58;;
24157;SDS011;12316;50.904;4.200;2022-11-06T13:30:12;6.40;;;2.25;;
24157;SDS011;12316;50.904;4.200;2022-11-06T13:35:11;6.97;;;2.05;;
24157;SDS011;12316;50.904;4.200;2022-11-06T13:37:40;5.25;;;2.10;;
24157;SDS011;12316;50.904;4.200;2022-11-06T13:43:38;5.88;;;2.15;;
24157;SDS011;12316;50.904;4.200;2022-11-06T13:45:49;7.03;;;2.60;;
24157;SDS011;12316;50.904;4.200;2022-11-06T13:48:35;6.78;;;2.45;;
24157;SDS011;12316;50.904;4.200;2022-11-06T13:56:30;7.57;;;2.47;;
24157;SDS011;12316;50.904;4.200;2022-11-06T14:07:01;3.75;;;1.50;;
24157;SDS011;12316;50.904;4.200;2022-11-06T14:09:29;3.80;;;1.63;;
24157;SDS011;12316;50.904;4.200;2022-11-06T14:11:59;3.63;;;1.48;;
24157;SDS011;12316;50.904;4.200;2022-11-06T14:14:31;5.60;;;1.60;;
24157;SDS011;12316;50.904;4.200;2022-11-06T14:19:36;5.18;;;1.60;;
24157;SDS011;12316;50.904;4.200;2022-11-06T14:24:50;5.72;;;1.75;;
24157;SDS011;12316;50.904;4.200;2022-11-06T14:30:02;7.03;;;1.55;;
24157;SDS011;12316;50.904;4.200;2022-11-06T14:32:46;6.63;;;1.95;;
24157;SDS011;12316;50.904;4.200;2022-11-06T14:38:12;3.42;;;1.60;;
24157;SDS011;12316;50.904;4.200;2022-11-06T14:40:39;3.83;;;1.70;;
24157;SDS011;12316;50.904;4.200;2022-11-06T14:48:36;4.30;;;2.10;;
24157;SDS011;12316;50.904;4.200;2022-11-06T14:51:05;5.53;;;2.25;;
24157;SDS011;12316;50.904;4.200;2022-11-06T14:53:33;5.28;;;2.00;;
24157;SDS011;12316;50.904;4.200;2022-11-06T14:56:07;7.55;;;2.00;;
24157;SDS011;12316;50.904;4.200;2022-11-06T14:58:35;5.18;;;2.10;;
24157;SDS011;12316;50.904;4.200;2022-11-06T15:01:12;6.30;;;2.45;;
24157;SDS011;12316;50.904;4.200;2022-11-06T15:08:51;6.43;;;2.22;;
24157;SDS011;12316;50.904;4.200;2022-11-06T15:17:09;7.20;;;2.20;;
24157;SDS011;12316;50.904;4.200;2022-11-06T15:19:36;6.30;;;2.28;;
24157;SDS011;12316;50.904;4.200;2022-11-06T15:22:14;5.35;;;2.20;;
24157;SDS011;12316;50.904;4.200;2022-11-06T15:24:48;6.15;;;2.42;;
24157;SDS011;12316;50.904;4.200;2022-11-06T15:27:37;6.70;;;2.10;;
24157;SDS011;12316;50.904;4.200;2022-11-06T15:30:06;5.60;;;2.30;;
24157;SDS011;12316;50.904;4.200;2022-11-06T15:32:37;4.70;;;2.55;;
24157;SDS011;12316;50.904;4.200;2022-11-06T15:35:13;7.88;;;2.53;;
24157;SDS011;12316;50.904;4.200;2022-11-06T15:37:44;4.75;;;2.30;;
24157;SDS011;12316;50.904;4.200;2022-11-06T15:42:47;5.57;;;2.10;;
24157;SDS011;12316;50.904;4.200;2022-11-06T15:47:40;6.88;;;2.20;;
24157;SDS011;12316;50.904;4.200;2022-11-06T15:50:19;6.53;;;2.30;;
24157;SDS011;12316;50.904;4.200;2022-11-06T15:52:47;2.78;;;1.92;;
24157;SDS011;12316;50.904;4.200;2022-11-06T15:55:26;5.72;;;2.28;;
24157;SDS011;12316;50.904;4.200;2022-11-06T15:58:03;5.40;;;1.98;;
24157;SDS011;12316;50.904;4.200;2022-11-06T16:00:32;4.53;;;2.15;;
24157;SDS011;12316;50.904;4.200;2022-11-06T16:03:01;3.13;;;2.00;;
24157;SDS011;12316;50.904;4.200;2022-11-06T16:05:30;6.72;;;2.08;;
24157;SDS011;12316;50.904;4.200;2022-11-06T16:07:58;4.90;;;2.22;;
24157;SDS011;12316;50.904;4.200;2022-11-06T16:10:25;4.10;;;2.20;;
24157;SDS011;12316;50.904;4.200;2022-11-06T16:12:51;3.67;;;1.92;;
24157;SDS011;12316;50.904;4.200;2022-11-06T16:23:30;4.75;;;2.40;;
24157;SDS011;12316;50.904;4.200;2022-11-06T16:26:10;4.63;;;2.53;;
24157;SDS011;12316;50.904;4.200;2022-11-06T16:28:55;4.63;;;2.33;;
24157;SDS011;12316;50.904;4.200;2022-11-06T16:31:22;4.35;;;1.95;;
24157;SDS011;12316;50.904;4.200;2022-11-06T16:36:19;3.10;;;2.00;;
24157;SDS011;12316;50.904;4.200;2022-11-06T16:38:45;6.05;;;2.60;;
24157;SDS011;12316;50.904;4.200;2022-11-06T16:41:14;5.75;;;2.70;;
24157;SDS011;12316;50.904;4.200;2022-11-06T16:47:19;6.07;;;2.70;;
24157;SDS011;12316;50.904;4.200;2022-11-06T16:57:24;6.30;;;2.70;;
24157;SDS011;12316;50.904;4.200;2022-11-06T16:59:53;6.60;;;2.72;;
24157;SDS011;12316;50.904;4.200;2022-11-06T17:02:27;7.38;;;2.85;;
24157;SDS011;12316;50.904;4.200;2022-11-06T17:05:05;6.03;;;2.60;;
24157;SDS011;12316;50.904;4.200;2022-11-06T17:07:41;5.15;;;2.95;;
24157;SDS011;12316;50.904;4.200;2022-11-06T17:10:24;6.55;;;2.75;;
24157;SDS011;12316;50.904;4.200;2022-11-06T17:13:12;8.13;;;3.08;;
24157;SDS011;12316;50.904;4.200;2022-11-06T17:15:55;8.25;;;3.10;;
24157;SDS011;12316;50.904;4.200;2022-11-06T17:18:23;5.50;;;3.22;;
24157;SDS011;12316;50.904;4.200;2022-11-06T17:20:51;4.13;;;3.05;;
24157;SDS011;12316;50.904;4.200;2022-11-06T17:23:22;5.80;;;3.20;;
24157;SDS011;12316;50.904;4.200;2022-11-06T17:25:49;6.57;;;3.53;;
24157;SDS011;12316;50.904;4.200;2022-11-06T17:28:16;7.10;;;3.35;;
24157;SDS011;12316;50.904;4.200;2022-11-06T17:30:42;7.47;;;3.42;;
24157;SDS011;12316;50.904;4.200;2022-11-06T17:33:08;7.25;;;3.28;;
24157;SDS011;12316;50.904;4.200;2022-11-06T17:35:34;6.95;;;3.50;;
24157;SDS011;12316;50.904;4.200;2022-11-06T17:38:01;5.45;;;3.20;;
24157;SDS011;12316;50.904;4.200;2022-11-06T17:40:26;6.25;;;3.60;;
24157;SDS011;12316;50.904;4.200;2022-11-06T17:42:52;8.95;;;3.83;;
24157;SDS011;12316;50.904;4.200;2022-11-06T17:45:17;7.55;;;3.88;;
24157;SDS011;12316;50.904;4.200;2022-11-06T17:47:43;5.78;;;4.10;;
24157;SDS011;12316;50.904;4.200;2022-11-06T17:50:08;7.88;;;4.03;;
24157;SDS011;12316;50.904;4.200;2022-11-06T17:52:34;7.88;;;4.15;;
24157;SDS011;12316;50.904;4.200;2022-11-06T17:54:59;6.50;;;3.88;;
24157;SDS011;12316;50.904;4.200;2022-11-06T17:57:25;7.95;;;4.20;;
24157;SDS011;12316;50.904;4.200;2022-11-06T17:59:50;5.47;;;3.70;;
24157;SDS011;12316;50.904;4.200;2022-11-06T18:02:16;8.23;;;4.10;;